sensor_id;sensor_type;location;lat;lon;timestamp;pressure;altitude;pressure_sealevel;temperature;humidity
46408;BME280;32110;45.724;21.276;2022-07-10T00:00:14;100398.72;;;19.87;nan
46408;BME280;32110;45.724;21.276;2022-07-10T00:02:41;100390.06;;;19.76;nan
46408;BME280;32110;45.724;21.276;2022-07-10T00:05:08;100393.53;;;19.76;nan
46408;BME280;32110;45.724;21.276;2022-07-10T00:09:59;100381.25;;;19.75;nan
46408;BME280;32110;45.724;21.276;2022-07-10T00:12:25;100388.69;;;19.79;nan
46408;BME280;32110;45.724;21.276;2022-07-10T00:14:50;100375.34;;;19.79;nan
46408;BME280;32110;45.724;21.276;2022-07-10T00:17:16;100334.25;;;19.50;nan
46408;BME280;32110;45.724;21.276;2022-07-10T00:22:07;100371.72;;;19.69;nan
46408;BME280;32110;45.724;21.276;2022-07-10T00:24:32;100388.56;;;19.65;nan
46408;BME280;32110;45.724;21.276;2022-07-10T00:26:59;100295.03;;;19.46;nan
46408;BME280;32110;45.724;21.276;2022-07-10T00:29:24;100385.72;;;19.56;nan
46408;BME280;32110;45.724;21.276;2022-07-10T00:31:50;100352.44;;;19.48;nan
46408;BME280;32110;45.724;21.276;2022-07-10T00:34:15;100320.38;;;19.48;nan
46408;BME280;32110;45.724;21.276;2022-07-10T00:36:41;100343.56;;;19.29;nan
46408;BME280;32110;45.724;21.276;2022-07-10T00:39:06;100367.22;;;19.41;nan
46408;BME280;32110;45.724;21.276;2022-07-10T00:41:32;100356.06;;;19.33;nan
46408;BME280;32110;45.724;21.276;2022-07-10T00:46:27;100322.84;;;19.21;nan
46408;BME280;32110;45.724;21.276;2022-07-10T00:48:54;100372.78;;;19.20;nan
46408;BME280;32110;45.724;21.276;2022-07-10T00:51:21;100366.41;;;19.16;nan
46408;BME280;32110;45.724;21.276;2022-07-10T00:53:50;100330.84;;;18.97;nan
46408;BME280;32110;45.724;21.276;2022-07-10T00:56:21;100358.00;;;19.04;nan
46408;BME280;32110;45.724;21.276;2022-07-10T00:58:47;100317.00;;;18.95;nan
46408;BME280;32110;45.724;21.276;2022-07-10T01:01:14;100330.94;;;18.86;nan
46408;BME280;32110;45.724;21.276;2022-07-10T01:08:30;100347.06;;;18.71;nan
46408;BME280;32110;45.724;21.276;2022-07-10T01:10:57;100356.41;;;18.68;nan
46408;BME280;32110;45.724;21.276;2022-07-10T01:13:22;100350.81;;;18.65;nan
46408;BME280;32110;45.724;21.276;2022-07-10T01:15:48;100342.88;;;18.60;nan
46408;BME280;32110;45.724;21.276;2022-07-10T01:18:14;100333.09;;;18.50;nan
46408;BME280;32110;45.724;21.276;2022-07-10T01:20:40;100329.72;;;18.39;nan
46408;BME280;32110;45.724;21.276;2022-07-10T01:23:05;100384.09;;;18.38;nan
46408;BME280;32110;45.724;21.276;2022-07-10T01:25:31;100383.88;;;18.35;nan
46408;BME280;32110;45.724;21.276;2022-07-10T01:27:57;100285.81;;;18.26;nan
46408;BME280;32110;45.724;21.276;2022-07-10T01:30:24;100328.47;;;18.26;nan
46408;BME280;32110;45.724;21.276;2022-07-10T01:35:15;100344.31;;;18.13;nan
46408;BME280;32110;45.724;21.276;2022-07-10T01:37:41;100336.31;;;18.07;nan
46408;BME280;32110;45.724;21.276;2022-07-10T01:40:07;100287.81;;;18.11;nan
46408;BME280;32110;45.724;21.276;2022-07-10T01:42:33;100313.41;;;18.06;nan
46408;BME280;32110;45.724;21.276;2022-07-10T01:44:59;100327.31;;;18.03;nan
46408;BME280;32110;45.724;21.276;2022-07-10T01:47:25;100332.09;;;18.01;nan
46408;BME280;32110;45.724;21.276;2022-07-10T01:52:19;100295.38;;;17.98;nan
46408;BME280;32110;45.724;21.276;2022-07-10T01:57:10;100240.50;;;17.92;nan
46408;BME280;32110;45.724;21.276;2022-07-10T02:02:01;100330.06;;;17.83;nan
46408;BME280;32110;45.724;21.276;2022-07-10T02:04:27;100295.44;;;17.78;nan
46408;BME280;32110;45.724;21.276;2022-07-10T02:09:38;100312.78;;;17.75;nan
46408;BME280;32110;45.724;21.276;2022-07-10T02:12:07;100363.66;;;17.74;nan
46408;BME280;32110;45.724;21.276;2022-07-10T02:19:24;100273.75;;;17.55;nan
46408;BME280;32110;45.724;21.276;2022-07-10T02:21:50;100278.22;;;17.65;nan
46408;BME280;32110;45.724;21.276;2022-07-10T02:29:07;100267.84;;;17.63;nan
46408;BME280;32110;45.724;21.276;2022-07-10T02:31:32;100327.25;;;17.54;nan
46408;BME280;32110;45.724;21.276;2022-07-10T02:36:25;100274.06;;;17.43;nan
46408;BME280;32110;45.724;21.276;2022-07-10T02:46:06;100279.81;;;17.01;nan
46408;BME280;32110;45.724;21.276;2022-07-10T03:20:05;100336.63;;;15.82;nan
46408;BME280;32110;45.724;21.276;2022-07-10T04:55:02;100320.25;;;16.88;nan
46408;BME280;32110;45.724;21.276;2022-07-10T04:57:27;100320.25;;;16.98;nan
46408;BME280;32110;45.724;21.276;2022-07-10T05:14:25;100312.69;;;17.31;nan
46408;BME280;32110;45.724;21.276;2022-07-10T05:21:41;100292.22;;;17.31;nan
46408;BME280;32110;45.724;21.276;2022-07-10T05:28:57;100296.88;;;17.60;nan
46408;BME280;32110;45.724;21.276;2022-07-10T05:36:13;100312.69;;;17.41;nan
46408;BME280;32110;45.724;21.276;2022-07-10T05:41:04;100268.47;;;17.40;nan
46408;BME280;32110;45.724;21.276;2022-07-10T05:45:55;100302.00;;;17.46;nan
46408;BME280;32110;45.724;21.276;2022-07-10T05:50:46;100288.09;;;17.59;nan
46408;BME280;32110;45.724;21.276;2022-07-10T06:27:22;100250.81;;;18.04;nan
46408;BME280;32110;45.724;21.276;2022-07-10T06:39:32;100247.13;;;18.34;nan
46408;BME280;32110;45.724;21.276;2022-07-10T06:42:04;100231.06;;;18.39;nan
46408;BME280;32110;45.724;21.276;2022-07-10T06:44:30;100295.81;;;18.45;nan
46408;BME280;32110;45.724;21.276;2022-07-10T06:46:57;100246.47;;;18.47;nan
46408;BME280;32110;45.724;21.276;2022-07-10T06:49:41;100250.81;;;18.38;nan
46408;BME280;32110;45.724;21.276;2022-07-10T06:52:07;100253.16;;;18.45;nan
46408;BME280;32110;45.724;21.276;2022-07-10T07:01:49;100259.34;;;18.64;nan
46408;BME280;32110;45.724;21.276;2022-07-10T07:04:14;100255.28;;;18.72;nan
46408;BME280;32110;45.724;21.276;2022-07-10T07:06:39;100192.69;;;18.64;nan
46408;BME280;32110;45.724;21.276;2022-07-10T07:09:05;100251.88;;;18.66;nan
46408;BME280;32110;45.724;21.276;2022-07-10T07:11:31;100266.31;;;18.65;nan
46408;BME280;32110;45.724;21.276;2022-07-10T07:13:56;100235.13;;;18.61;nan
46408;BME280;32110;45.724;21.276;2022-07-10T07:16:21;100256.88;;;18.73;nan
46408;BME280;32110;45.724;21.276;2022-07-10T07:19:02;100237.69;;;18.71;nan
46408;BME280;32110;45.724;21.276;2022-07-10T07:21:30;100255.22;;;18.82;nan
46408;BME280;32110;45.724;21.276;2022-07-10T07:24:14;100304.72;;;18.94;nan
46408;BME280;32110;45.724;21.276;2022-07-10T07:26:39;100254.63;;;19.09;nan
46408;BME280;32110;45.724;21.276;2022-07-10T07:29:04;100254.94;;;19.27;nan
46408;BME280;32110;45.724;21.276;2022-07-10T07:31:30;100222.28;;;19.35;nan
46408;BME280;32110;45.724;21.276;2022-07-10T07:33:55;100240.16;;;19.34;nan
46408;BME280;32110;45.724;21.276;2022-07-10T07:36:21;100253.09;;;19.46;nan
46408;BME280;32110;45.724;21.276;2022-07-10T07:38:46;100251.97;;;19.52;nan
46408;BME280;32110;45.724;21.276;2022-07-10T07:41:11;100258.97;;;19.67;nan
46408;BME280;32110;45.724;21.276;2022-07-10T07:43:37;100239.66;;;19.75;nan
46408;BME280;32110;45.724;21.276;2022-07-10T07:46:02;100261.94;;;19.85;nan
46408;BME280;32110;45.724;21.276;2022-07-10T07:50:53;100169.38;;;20.08;nan
46408;BME280;32110;45.724;21.276;2022-07-10T07:53:18;100238.41;;;20.19;nan
46408;BME280;32110;45.724;21.276;2022-07-10T07:55:44;100249.66;;;20.35;nan
46408;BME280;32110;45.724;21.276;2022-07-10T07:58:09;100227.38;;;20.54;nan
46408;BME280;32110;45.724;21.276;2022-07-10T08:00:35;100248.94;;;20.63;nan
46408;BME280;32110;45.724;21.276;2022-07-10T08:05:26;100247.97;;;20.72;nan
46408;BME280;32110;45.724;21.276;2022-07-10T08:07:57;100254.59;;;20.75;nan
46408;BME280;32110;45.724;21.276;2022-07-10T08:10:25;100256.78;;;20.87;nan
46408;BME280;32110;45.724;21.276;2022-07-10T08:15:19;100263.22;;;20.99;nan
46408;BME280;32110;45.724;21.276;2022-07-10T08:17:48;100257.88;;;20.99;nan
46408;BME280;32110;45.724;21.276;2022-07-10T08:20:13;100228.31;;;21.04;nan
46408;BME280;32110;45.724;21.276;2022-07-10T08:22:42;100251.22;;;21.11;nan
46408;BME280;32110;45.724;21.276;2022-07-10T08:25:09;100235.31;;;21.28;nan
46408;BME280;32110;45.724;21.276;2022-07-10T08:27:35;100288.88;;;21.28;nan
46408;BME280;32110;45.724;21.276;2022-07-10T08:30:00;100237.31;;;21.36;nan
46408;BME280;32110;45.724;21.276;2022-07-10T08:32:26;100221.25;;;21.36;nan
46408;BME280;32110;45.724;21.276;2022-07-10T08:34:52;100241.47;;;21.42;nan
46408;BME280;32110;45.724;21.276;2022-07-10T08:37:18;100222.63;;;21.48;nan
46408;BME280;32110;45.724;21.276;2022-07-10T08:39:45;100243.97;;;21.53;nan
46408;BME280;32110;45.724;21.276;2022-07-10T08:42:10;100238.38;;;21.63;nan
46408;BME280;32110;45.724;21.276;2022-07-10T08:44:37;100234.56;;;21.64;nan
46408;BME280;32110;45.724;21.276;2022-07-10T08:47:03;100215.22;;;21.67;nan
46408;BME280;32110;45.724;21.276;2022-07-10T08:49:31;100255.84;;;21.83;nan
46408;BME280;32110;45.724;21.276;2022-07-10T08:52:08;100311.44;;;21.91;nan
46408;BME280;32110;45.724;21.276;2022-07-10T08:54:38;100271.34;;;22.08;nan
46408;BME280;32110;45.724;21.276;2022-07-10T08:57:04;100250.75;;;22.18;nan
46408;BME280;32110;45.724;21.276;2022-07-10T08:59:30;100299.22;;;22.21;nan
46408;BME280;32110;45.724;21.276;2022-07-10T09:01:56;100264.72;;;22.28;nan
46408;BME280;32110;45.724;21.276;2022-07-10T09:04:24;100225.94;;;22.35;nan
46408;BME280;32110;45.724;21.276;2022-07-10T09:06:52;100234.69;;;22.49;nan
46408;BME280;32110;45.724;21.276;2022-07-10T09:09:18;100249.09;;;22.62;nan
46408;BME280;32110;45.724;21.276;2022-07-10T09:11:44;100224.50;;;22.68;nan
46408;BME280;32110;45.724;21.276;2022-07-10T09:14:13;100241.88;;;22.71;nan
46408;BME280;32110;45.724;21.276;2022-07-10T09:16:41;100257.91;;;22.85;nan
46408;BME280;32110;45.724;21.276;2022-07-10T09:19:21;100316.81;;;22.90;nan
46408;BME280;32110;45.724;21.276;2022-07-10T09:21:53;100164.56;;;22.90;nan
46408;BME280;32110;45.724;21.276;2022-07-10T09:24:20;100246.78;;;23.09;nan
46408;BME280;32110;45.724;21.276;2022-07-10T09:29:21;100212.50;;;23.14;nan
46408;BME280;32110;45.724;21.276;2022-07-10T09:31:54;100228.63;;;23.23;nan
46408;BME280;32110;45.724;21.276;2022-07-10T09:34:45;100251.09;;;23.36;nan
46408;BME280;32110;45.724;21.276;2022-07-10T09:37:21;100244.31;;;23.47;nan
46408;BME280;32110;45.724;21.276;2022-07-10T09:45:11;100206.66;;;23.65;nan
46408;BME280;32110;45.724;21.276;2022-07-10T09:50:22;100228.81;;;23.96;nan
46408;BME280;32110;45.724;21.276;2022-07-10T09:53:05;100225.47;;;24.08;nan
46408;BME280;32110;45.724;21.276;2022-07-10T09:55:33;100250.31;;;24.05;nan
46408;BME280;32110;45.724;21.276;2022-07-10T10:00:29;100220.09;;;24.08;nan
46408;BME280;32110;45.724;21.276;2022-07-10T10:03:05;100253.44;;;24.25;nan
46408;BME280;32110;45.724;21.276;2022-07-10T10:08:12;100249.66;;;24.26;nan
46408;BME280;32110;45.724;21.276;2022-07-10T10:10:46;100232.41;;;24.27;nan
46408;BME280;32110;45.724;21.276;2022-07-10T10:13:16;100233.66;;;24.29;nan
46408;BME280;32110;45.724;21.276;2022-07-10T10:15:43;100221.25;;;24.46;nan
46408;BME280;32110;45.724;21.276;2022-07-10T10:18:10;100262.91;;;24.48;nan
46408;BME280;32110;45.724;21.276;2022-07-10T10:20:37;100217.56;;;24.59;nan
46408;BME280;32110;45.724;21.276;2022-07-10T10:23:04;100253.56;;;24.54;nan
46408;BME280;32110;45.724;21.276;2022-07-10T10:25:32;100247.06;;;24.47;nan
46408;BME280;32110;45.724;21.276;2022-07-10T10:28:01;100210.34;;;24.51;nan
46408;BME280;32110;45.724;21.276;2022-07-10T10:30:27;100222.22;;;24.50;nan
46408;BME280;32110;45.724;21.276;2022-07-10T10:35:44;100211.88;;;24.60;nan
46408;BME280;32110;45.724;21.276;2022-07-10T10:38:12;100274.09;;;24.59;nan
46408;BME280;32110;45.724;21.276;2022-07-10T10:40:38;100197.66;;;24.51;nan
46408;BME280;32110;45.724;21.276;2022-07-10T10:43:23;100204.09;;;24.68;nan
46408;BME280;32110;45.724;21.276;2022-07-10T10:45:52;100197.91;;;24.67;nan
46408;BME280;32110;45.724;21.276;2022-07-10T10:50:50;100224.25;;;24.61;nan
46408;BME280;32110;45.724;21.276;2022-07-10T10:53:23;100212.13;;;24.76;nan
46408;BME280;32110;45.724;21.276;2022-07-10T11:01:24;100201.94;;;24.82;nan
46408;BME280;32110;45.724;21.276;2022-07-10T11:06:51;100200.00;;;24.91;nan
46408;BME280;32110;45.724;21.276;2022-07-10T11:09:31;100204.88;;;24.98;nan
46408;BME280;32110;45.724;21.276;2022-07-10T11:12:05;100172.34;;;25.03;nan
46408;BME280;32110;45.724;21.276;2022-07-10T11:14:39;100218.53;;;25.14;nan
46408;BME280;32110;45.724;21.276;2022-07-10T11:17:06;100186.91;;;25.02;nan
46408;BME280;32110;45.724;21.276;2022-07-10T11:19:33;100211.78;;;25.08;nan
46408;BME280;32110;45.724;21.276;2022-07-10T11:24:50;100204.44;;;24.87;nan
46408;BME280;32110;45.724;21.276;2022-07-10T11:30:00;100188.34;;;24.78;nan
46408;BME280;32110;45.724;21.276;2022-07-10T11:32:27;100194.56;;;24.70;nan
46408;BME280;32110;45.724;21.276;2022-07-10T11:34:53;100195.34;;;24.71;nan
46408;BME280;32110;45.724;21.276;2022-07-10T11:37:19;100188.41;;;24.70;nan
46408;BME280;32110;45.724;21.276;2022-07-10T11:39:45;100187.81;;;24.64;nan
46408;BME280;32110;45.724;21.276;2022-07-10T11:42:11;100205.72;;;24.60;nan
46408;BME280;32110;45.724;21.276;2022-07-10T11:44:37;100178.13;;;24.63;nan
46408;BME280;32110;45.724;21.276;2022-07-10T11:47:04;100184.91;;;24.69;nan
46408;BME280;32110;45.724;21.276;2022-07-10T11:49:30;100244.63;;;24.71;nan
46408;BME280;32110;45.724;21.276;2022-07-10T11:52:01;100169.31;;;24.83;nan
46408;BME280;32110;45.724;21.276;2022-07-10T11:54:27;100174.38;;;25.06;nan
46408;BME280;32110;45.724;21.276;2022-07-10T11:56:53;100200.34;;;25.11;nan
46408;BME280;32110;45.724;21.276;2022-07-10T11:59:24;100178.00;;;25.10;nan
46408;BME280;32110;45.724;21.276;2022-07-10T12:01:51;100193.41;;;25.10;nan
46408;BME280;32110;45.724;21.276;2022-07-10T12:04:22;100160.59;;;25.08;nan
46408;BME280;32110;45.724;21.276;2022-07-10T12:09:17;100173.19;;;24.95;nan
46408;BME280;32110;45.724;21.276;2022-07-10T12:11:45;100186.81;;;24.98;nan
46408;BME280;32110;45.724;21.276;2022-07-10T12:14:22;100196.31;;;24.96;nan
46408;BME280;32110;45.724;21.276;2022-07-10T12:16:50;100189.53;;;24.90;nan
46408;BME280;32110;45.724;21.276;2022-07-10T12:19:23;100176.25;;;24.84;nan
46408;BME280;32110;45.724;21.276;2022-07-10T12:21:50;100178.50;;;24.82;nan
46408;BME280;32110;45.724;21.276;2022-07-10T12:24:18;100190.84;;;24.83;nan
46408;BME280;32110;45.724;21.276;2022-07-10T12:26:47;100187.19;;;24.88;nan
46408;BME280;32110;45.724;21.276;2022-07-10T12:29:20;100187.38;;;24.83;nan
46408;BME280;32110;45.724;21.276;2022-07-10T12:31:47;100192.91;;;24.87;nan
46408;BME280;32110;45.724;21.276;2022-07-10T12:34:12;100177.41;;;24.83;nan
46408;BME280;32110;45.724;21.276;2022-07-10T12:36:50;100177.59;;;24.78;nan
46408;BME280;32110;45.724;21.276;2022-07-10T12:39:18;100178.56;;;24.74;nan
46408;BME280;32110;45.724;21.276;2022-07-10T12:42:03;100198.72;;;24.59;nan
46408;BME280;32110;45.724;21.276;2022-07-10T12:44:37;100178.34;;;24.49;nan
46408;BME280;32110;45.724;21.276;2022-07-10T12:47:11;100203.91;;;24.26;nan
46408;BME280;32110;45.724;21.276;2022-07-10T12:49:57;100193.31;;;24.20;nan
46408;BME280;32110;45.724;21.276;2022-07-10T12:52:25;100186.84;;;24.13;nan
46408;BME280;32110;45.724;21.276;2022-07-10T12:57:59;100190.72;;;23.77;nan
46408;BME280;32110;45.724;21.276;2022-07-10T13:02:58;100187.06;;;23.73;nan
46408;BME280;32110;45.724;21.276;2022-07-10T13:08:17;100203.53;;;23.80;nan
46408;BME280;32110;45.724;21.276;2022-07-10T13:10:57;100251.47;;;23.78;nan
46408;BME280;32110;45.724;21.276;2022-07-10T13:13:27;100197.53;;;23.83;nan
46408;BME280;32110;45.724;21.276;2022-07-10T13:15:53;100119.69;;;23.69;nan
46408;BME280;32110;45.724;21.276;2022-07-10T13:18:20;100208.25;;;23.92;nan
46408;BME280;32110;45.724;21.276;2022-07-10T13:20:53;100189.28;;;23.97;nan
46408;BME280;32110;45.724;21.276;2022-07-10T13:23:20;100153.66;;;24.00;nan
46408;BME280;32110;45.724;21.276;2022-07-10T13:25:50;100186.25;;;24.07;nan
46408;BME280;32110;45.724;21.276;2022-07-10T13:28:16;100156.00;;;24.10;nan
46408;BME280;32110;45.724;21.276;2022-07-10T13:30:43;100183.06;;;24.14;nan
46408;BME280;32110;45.724;21.276;2022-07-10T13:33:08;100164.34;;;24.17;nan
46408;BME280;32110;45.724;21.276;2022-07-10T13:35:35;100168.13;;;24.25;nan
46408;BME280;32110;45.724;21.276;2022-07-10T13:38:02;100172.22;;;24.31;nan
46408;BME280;32110;45.724;21.276;2022-07-10T13:40:33;100153.69;;;24.38;nan
46408;BME280;32110;45.724;21.276;2022-07-10T13:42:59;100148.28;;;24.47;nan
46408;BME280;32110;45.724;21.276;2022-07-10T13:45:25;100153.50;;;24.52;nan
46408;BME280;32110;45.724;21.276;2022-07-10T13:47:55;100218.22;;;24.56;nan
46408;BME280;32110;45.724;21.276;2022-07-10T13:50:22;100157.09;;;24.56;nan
46408;BME280;32110;45.724;21.276;2022-07-10T13:52:48;100219.97;;;24.52;nan
46408;BME280;32110;45.724;21.276;2022-07-10T13:55:13;100205.75;;;24.42;nan
46408;BME280;32110;45.724;21.276;2022-07-10T13:57:39;100184.38;;;24.46;nan
46408;BME280;32110;45.724;21.276;2022-07-10T14:00:05;100152.44;;;24.27;nan
46408;BME280;32110;45.724;21.276;2022-07-10T14:02:31;100186.81;;;24.30;nan
46408;BME280;32110;45.724;21.276;2022-07-10T14:04:56;100151.47;;;24.32;nan
46408;BME280;32110;45.724;21.276;2022-07-10T14:07:22;100157.50;;;24.37;nan
46408;BME280;32110;45.724;21.276;2022-07-10T14:09:47;100222.22;;;24.32;nan
46408;BME280;32110;45.724;21.276;2022-07-10T14:12:13;100148.97;;;24.27;nan
46408;BME280;32110;45.724;21.276;2022-07-10T14:14:38;100168.22;;;24.46;nan
46408;BME280;32110;45.724;21.276;2022-07-10T14:17:04;100163.44;;;24.52;nan
46408;BME280;32110;45.724;21.276;2022-07-10T14:19:29;100166.88;;;24.61;nan
46408;BME280;32110;45.724;21.276;2022-07-10T14:21:55;100165.13;;;24.65;nan
46408;BME280;32110;45.724;21.276;2022-07-10T14:24:23;100162.91;;;24.67;nan
46408;BME280;32110;45.724;21.276;2022-07-10T14:26:49;100167.63;;;24.70;nan
46408;BME280;32110;45.724;21.276;2022-07-10T14:29:14;100110.00;;;24.71;nan
46408;BME280;32110;45.724;21.276;2022-07-10T14:31:40;100167.31;;;24.72;nan
46408;BME280;32110;45.724;21.276;2022-07-10T14:34:05;100165.41;;;24.72;nan
46408;BME280;32110;45.724;21.276;2022-07-10T14:36:32;100157.53;;;24.67;nan
46408;BME280;32110;45.724;21.276;2022-07-10T14:38:58;100167.16;;;24.68;nan
46408;BME280;32110;45.724;21.276;2022-07-10T14:41:24;100159.09;;;24.68;nan
46408;BME280;32110;45.724;21.276;2022-07-10T14:43:52;100193.78;;;24.70;nan
46408;BME280;32110;45.724;21.276;2022-07-10T14:46:18;100218.22;;;24.56;nan
46408;BME280;32110;45.724;21.276;2022-07-10T14:48:43;100184.00;;;24.56;nan
46408;BME280;32110;45.724;21.276;2022-07-10T14:51:09;100182.13;;;24.57;nan
46408;BME280;32110;45.724;21.276;2022-07-10T14:53:35;100155.53;;;24.55;nan
46408;BME280;32110;45.724;21.276;2022-07-10T14:56:04;100172.00;;;24.54;nan
46408;BME280;32110;45.724;21.276;2022-07-10T14:58:31;100198.13;;;24.53;nan
46408;BME280;32110;45.724;21.276;2022-07-10T15:00:57;100271.16;;;24.34;nan
46408;BME280;32110;45.724;21.276;2022-07-10T15:03:22;100199.28;;;24.35;nan
46408;BME280;32110;45.724;21.276;2022-07-10T15:05:48;100229.69;;;24.27;nan
46408;BME280;32110;45.724;21.276;2022-07-10T15:08:21;100258.69;;;24.04;nan
46408;BME280;32110;45.724;21.276;2022-07-10T15:10:47;100289.53;;;23.71;nan
46408;BME280;32110;45.724;21.276;2022-07-10T15:13:13;100204.00;;;23.56;nan
46408;BME280;32110;45.724;21.276;2022-07-10T15:15:39;100230.22;;;23.33;nan
46408;BME280;32110;45.724;21.276;2022-07-10T15:18:05;100239.50;;;23.09;nan
46408;BME280;32110;45.724;21.276;2022-07-10T15:20:31;100230.81;;;23.12;nan
46408;BME280;32110;45.724;21.276;2022-07-10T15:22:56;100277.59;;;23.11;nan
46408;BME280;32110;45.724;21.276;2022-07-10T15:25:22;100250.19;;;22.92;nan
46408;BME280;32110;45.724;21.276;2022-07-10T15:27:47;100259.06;;;22.61;nan
46408;BME280;32110;45.724;21.276;2022-07-10T15:30:13;100240.34;;;22.39;nan
46408;BME280;32110;45.724;21.276;2022-07-10T15:32:39;100244.19;;;22.24;nan
46408;BME280;32110;45.724;21.276;2022-07-10T15:35:05;100264.16;;;22.18;nan
46408;BME280;32110;45.724;21.276;2022-07-10T15:37:31;100225.81;;;21.95;nan
46408;BME280;32110;45.724;21.276;2022-07-10T15:39:57;100226.03;;;21.98;nan
46408;BME280;32110;45.724;21.276;2022-07-10T15:42:22;100266.28;;;21.84;nan
46408;BME280;32110;45.724;21.276;2022-07-10T15:44:48;100200.69;;;21.82;nan
46408;BME280;32110;45.724;21.276;2022-07-10T15:47:13;100196.88;;;21.83;nan
46408;BME280;32110;45.724;21.276;2022-07-10T15:49:39;100204.63;;;21.84;nan
46408;BME280;32110;45.724;21.276;2022-07-10T15:52:05;100196.09;;;21.82;nan
46408;BME280;32110;45.724;21.276;2022-07-10T15:54:30;100223.19;;;21.81;nan
46408;BME280;32110;45.724;21.276;2022-07-10T15:56:56;100246.66;;;21.75;nan
46408;BME280;32110;45.724;21.276;2022-07-10T15:59:24;100191.00;;;21.72;nan
46408;BME280;32110;45.724;21.276;2022-07-10T16:01:54;100189.25;;;21.76;nan
46408;BME280;32110;45.724;21.276;2022-07-10T16:04:20;100185.78;;;21.76;nan
46408;BME280;32110;45.724;21.276;2022-07-10T16:09:12;100198.22;;;21.94;nan
46408;BME280;32110;45.724;21.276;2022-07-10T16:11:37;100164.81;;;22.00;nan
46408;BME280;32110;45.724;21.276;2022-07-10T16:14:03;100229.34;;;22.04;nan
46408;BME280;32110;45.724;21.276;2022-07-10T16:16:28;100175.72;;;22.04;nan
46408;BME280;32110;45.724;21.276;2022-07-10T16:18:54;100177.22;;;22.19;nan
46408;BME280;32110;45.724;21.276;2022-07-10T16:21:21;100236.44;;;22.22;nan
46408;BME280;32110;45.724;21.276;2022-07-10T16:23:47;100178.81;;;22.20;nan
46408;BME280;32110;45.724;21.276;2022-07-10T16:26:13;100192.03;;;22.39;nan
46408;BME280;32110;45.724;21.276;2022-07-10T16:28:39;100203.41;;;22.44;nan
46408;BME280;32110;45.724;21.276;2022-07-10T16:31:05;100176.94;;;22.51;nan
46408;BME280;32110;45.724;21.276;2022-07-10T16:35:57;100198.31;;;22.65;nan
46408;BME280;32110;45.724;21.276;2022-07-10T16:38:23;100200.06;;;22.70;nan
46408;BME280;32110;45.724;21.276;2022-07-10T16:40:48;100207.28;;;22.69;nan
46408;BME280;32110;45.724;21.276;2022-07-10T16:43:14;100216.94;;;22.79;nan
46408;BME280;32110;45.724;21.276;2022-07-10T16:45:41;100234.47;;;22.77;nan
46408;BME280;32110;45.724;21.276;2022-07-10T16:48:07;100231.00;;;22.67;nan
46408;BME280;32110;45.724;21.276;2022-07-10T16:50:33;100231.09;;;22.62;nan
46408;BME280;32110;45.724;21.276;2022-07-10T16:53:00;100225.09;;;22.57;nan
46408;BME280;32110;45.724;21.276;2022-07-10T16:55:26;100239.09;;;22.45;nan
46408;BME280;32110;45.724;21.276;2022-07-10T16:57:52;100298.66;;;22.33;nan
46408;BME280;32110;45.724;21.276;2022-07-10T17:00:17;100251.13;;;22.25;nan
46408;BME280;32110;45.724;21.276;2022-07-10T17:02:44;100264.09;;;22.09;nan
46408;BME280;32110;45.724;21.276;2022-07-10T17:05:09;100336.00;;;22.07;nan
46408;BME280;32110;45.724;21.276;2022-07-10T17:07:39;100197.44;;;21.94;nan
46408;BME280;32110;45.724;21.276;2022-07-10T17:10:06;100290.78;;;21.92;nan
46408;BME280;32110;45.724;21.276;2022-07-10T17:12:32;100287.41;;;21.86;nan
46408;BME280;32110;45.724;21.276;2022-07-10T17:14:58;100346.44;;;21.72;nan
46408;BME280;32110;45.724;21.276;2022-07-10T17:17:23;100324.63;;;21.65;nan
46408;BME280;32110;45.724;21.276;2022-07-10T17:19:49;100278.47;;;21.54;nan
46408;BME280;32110;45.724;21.276;2022-07-10T17:24:41;100282.28;;;21.39;nan
46408;BME280;32110;45.724;21.276;2022-07-10T17:27:06;100287.72;;;21.34;nan
46408;BME280;32110;45.724;21.276;2022-07-10T17:29:32;100299.59;;;21.28;nan
46408;BME280;32110;45.724;21.276;2022-07-10T17:31:57;100276.09;;;21.25;nan
46408;BME280;32110;45.724;21.276;2022-07-10T17:36:48;100258.75;;;21.22;nan
46408;BME280;32110;45.724;21.276;2022-07-10T17:39:14;100260.31;;;21.23;nan
46408;BME280;32110;45.724;21.276;2022-07-10T17:41:40;100227.91;;;21.25;nan
46408;BME280;32110;45.724;21.276;2022-07-10T17:44:06;100260.81;;;21.25;nan
46408;BME280;32110;45.724;21.276;2022-07-10T17:46:32;100280.47;;;21.21;nan
46408;BME280;32110;45.724;21.276;2022-07-10T17:48:57;100264.91;;;21.23;nan
46408;BME280;32110;45.724;21.276;2022-07-10T17:51:23;100276.22;;;21.20;nan
46408;BME280;32110;45.724;21.276;2022-07-10T17:53:49;100251.34;;;21.19;nan
46408;BME280;32110;45.724;21.276;2022-07-10T17:56:16;100284.66;;;21.13;nan
46408;BME280;32110;45.724;21.276;2022-07-10T18:01:07;100279.09;;;21.10;nan
46408;BME280;32110;45.724;21.276;2022-07-10T18:03:32;100297.84;;;21.10;nan
46408;BME280;32110;45.724;21.276;2022-07-10T18:05:58;100266.50;;;21.10;nan
46408;BME280;32110;45.724;21.276;2022-07-10T18:08:23;100297.84;;;21.10;nan
46408;BME280;32110;45.724;21.276;2022-07-10T18:10:51;100308.34;;;21.06;nan
46408;BME280;32110;45.724;21.276;2022-07-10T18:13:17;100280.38;;;20.98;nan
46408;BME280;32110;45.724;21.276;2022-07-10T18:15:43;100276.81;;;21.03;nan
46408;BME280;32110;45.724;21.276;2022-07-10T18:18:08;100274.34;;;20.93;nan
46408;BME280;32110;45.724;21.276;2022-07-10T18:25:27;100294.84;;;20.84;nan